createdAt,value
2022-08-07T00:01:12.496Z,3.40
2022-08-07T00:06:29.476Z,3.28
2022-08-07T00:11:48.035Z,2.95
2022-08-07T00:17:03.095Z,2.67
2022-08-07T00:22:05.885Z,3.13
2022-08-07T00:27:09.321Z,2.53
2022-08-07T00:32:14.076Z,2.53
2022-08-07T00:37:17.858Z,2.40
2022-08-07T00:42:29.031Z,2.25
2022-08-07T00:48:08.783Z,2.67
2022-08-07T00:52:55.103Z,2.60
2022-08-07T00:57:57.575Z,2.40
2022-08-07T01:03:00.306Z,2.65
2022-08-07T01:08:03.787Z,2.30
2022-08-07T01:13:06.370Z,2.25
2022-08-07T01:18:09.635Z,2.80
2022-08-07T01:23:14.750Z,2.83
2022-08-07T01:28:18.357Z,2.75
2022-08-07T01:33:24.763Z,2.92
2022-08-07T01:38:35.685Z,2.40
2022-08-07T01:43:48.053Z,2.40
2022-08-07T01:48:51.305Z,2.40
2022-08-07T01:54:09.151Z,2.58
2022-08-07T01:59:31.070Z,2.45
2022-08-07T02:05:04.601Z,2.88
2022-08-07T02:10:14.381Z,3.20
2022-08-07T02:15:23.403Z,2.80
2022-08-07T02:20:31.586Z,2.53
2022-08-07T02:26:30.697Z,2.70
2022-08-07T02:31:09.146Z,3.00
2022-08-07T02:36:28.754Z,2.83
2022-08-07T02:41:39.995Z,2.78
2022-08-07T02:46:53.946Z,2.70
2022-08-07T02:52:00.194Z,2.38
2022-08-07T02:57:06.673Z,3.15
2022-08-07T03:02:10.550Z,2.92
2022-08-07T03:07:15.158Z,2.97
2022-08-07T03:12:22.676Z,2.83
2022-08-07T03:17:53.460Z,3.08
2022-08-07T03:23:00.409Z,3.53
2022-08-07T03:28:09.609Z,3.10
2022-08-07T03:33:39.883Z,3.70
2022-08-07T03:38:45.046Z,3.20
2022-08-07T03:43:56.743Z,3.10
2022-08-07T03:49:03.489Z,2.88
2022-08-07T03:54:35.713Z,3.03
2022-08-07T03:59:46.536Z,2.90
2022-08-07T04:05:07.428Z,3.20
2022-08-07T04:10:15.719Z,3.40
2022-08-07T04:15:24.053Z,3.58
2022-08-07T04:20:29.446Z,3.47
2022-08-07T04:25:35.812Z,3.92
2022-08-07T04:30:55.402Z,4.60
2022-08-07T04:36:10.525Z,4.32
2022-08-07T04:41:19.119Z,3.70
2022-08-07T04:47:04.400Z,3.03
2022-08-07T04:52:18.594Z,3.22
2022-08-07T04:58:33.703Z,3.38
2022-08-07T05:04:17.211Z,3.15
2022-08-07T05:09:45.346Z,2.95
2022-08-07T05:15:03.314Z,3.40
2022-08-07T05:20:09.811Z,3.08
2022-08-07T05:25:26.324Z,3.20
2022-08-07T05:30:40.977Z,2.75
2022-08-07T05:35:46.582Z,3.42
2022-08-07T05:40:51.486Z,2.67
2022-08-07T05:45:57.977Z,2.70
2022-08-07T05:51:02.356Z,2.60
2022-08-07T06:01:21.098Z,2.47
2022-08-07T06:06:29.756Z,2.78
2022-08-07T06:11:38.839Z,2.63
2022-08-07T06:16:50.191Z,2.50
2022-08-07T06:22:14.499Z,2.42
2022-08-07T06:27:59.785Z,2.08
2022-08-07T06:32:49.955Z,2.05
2022-08-07T06:37:53.047Z,1.70
2022-08-07T06:42:58.250Z,1.60
2022-08-07T06:48:13.189Z,2.08
2022-08-07T06:55:28.773Z,1.70
2022-08-07T07:00:13.922Z,1.70
2022-08-07T07:04:28.529Z,1.40
2022-08-07T07:09:36.219Z,1.35
2022-08-07T07:14:50.572Z,2.58
2022-08-07T07:19:59.140Z,1.10
2022-08-07T07:26:33.045Z,1.63
2022-08-07T07:30:37.898Z,1.50
2022-08-07T07:36:04.539Z,1.58
2022-08-07T07:41:10.379Z,1.08
2022-08-07T07:46:38.023Z,0.82
2022-08-07T07:51:58.434Z,1.60
2022-08-07T07:57:01.570Z,0.60
2022-08-07T08:02:10.658Z,1.00
2022-08-07T08:07:14.640Z,0.85
2022-08-07T08:12:51.256Z,0.80
2022-08-07T08:17:57.733Z,1.00
2022-08-07T08:23:20.635Z,0.45
2022-08-07T08:28:37.768Z,1.00
2022-08-07T08:33:42.339Z,0.80
2022-08-07T08:38:52.171Z,1.00
2022-08-07T08:44:29.143Z,0.90
2022-08-07T08:50:15.126Z,1.23
2022-08-07T08:55:53.224Z,0.88
2022-08-07T09:01:21.734Z,3.08
2022-08-07T09:06:48.105Z,0.70
2022-08-07T09:12:30.188Z,0.82
2022-08-07T09:17:59.716Z,0.52
2022-08-07T09:24:33.528Z,0.75
2022-08-07T09:30:02.369Z,0.60
2022-08-07T09:34:41.959Z,0.98
2022-08-07T09:40:42.891Z,0.65
2022-08-07T09:47:27.431Z,0.50
2022-08-07T09:52:16.614Z,0.60
2022-08-07T09:57:30.203Z,0.60
2022-08-07T10:02:35.696Z,0.70
2022-08-07T10:07:57.122Z,0.32
2022-08-07T10:13:55.053Z,0.55
2022-08-07T10:18:59.561Z,0.75
2022-08-07T10:24:28.083Z,0.70
2022-08-07T10:30:07.149Z,6.68
2022-08-07T10:35:56.304Z,0.50
2022-08-07T10:41:51.365Z,0.52
2022-08-07T10:47:11.978Z,0.63
2022-08-07T10:52:31.795Z,0.47
2022-08-07T10:58:17.781Z,0.60
2022-08-07T11:03:55.049Z,0.47
2022-08-07T11:09:11.075Z,0.93
2022-08-07T11:14:45.906Z,0.63
2022-08-07T11:20:04.991Z,0.50
2022-08-07T11:25:16.777Z,0.40
2022-08-07T11:30:39.031Z,0.90
2022-08-07T11:35:59.872Z,0.88
2022-08-07T11:41:18.169Z,0.25
2022-08-07T11:47:04.458Z,0.47
2022-08-07T11:52:29.241Z,0.60
2022-08-07T11:57:59.479Z,0.52
2022-08-07T12:03:45.199Z,0.50
2022-08-07T12:08:49.102Z,0.90
2022-08-07T12:14:04.679Z,0.40
2022-08-07T12:19:35.538Z,0.73
2022-08-07T12:26:02.952Z,0.22
2022-08-07T12:37:00.981Z,0.55
2022-08-07T12:42:04.172Z,0.43
2022-08-07T12:47:37.548Z,0.30
2022-08-07T12:52:52.359Z,0.57
2022-08-07T12:58:01.239Z,0.77
2022-08-07T13:03:52.170Z,0.50
2022-08-07T13:08:55.923Z,0.80
2022-08-07T13:13:58.531Z,0.63
2022-08-07T13:24:55.255Z,0.68
2022-08-07T13:30:19.104Z,0.60
2022-08-07T13:36:18.081Z,0.60
2022-08-07T13:41:42.883Z,0.50
2022-08-07T13:46:54.928Z,0.73
2022-08-07T13:52:33.526Z,0.80
2022-08-07T13:57:32.091Z,0.50
2022-08-07T14:02:51.088Z,0.80
2022-08-07T14:08:00.971Z,0.60
2022-08-07T14:13:04.823Z,0.65
2022-08-07T14:18:31.248Z,0.60
2022-08-07T14:24:00.282Z,0.43
2022-08-07T14:29:06.042Z,0.60
2022-08-07T14:34:29.181Z,2.03
2022-08-07T14:40:17.893Z,0.70
2022-08-07T14:45:20.850Z,1.08
2022-08-07T14:55:56.367Z,0.47
2022-08-07T15:01:21.484Z,0.50
2022-08-07T15:06:26.208Z,0.70
2022-08-07T15:11:51.089Z,0.60
2022-08-07T15:17:16.672Z,0.57
2022-08-07T15:22:31.227Z,0.73
2022-08-07T15:27:40.609Z,0.95
2022-08-07T15:33:05.632Z,0.47
2022-08-07T15:38:33.038Z,0.60
2022-08-07T15:44:07.126Z,0.90
2022-08-07T15:49:15.088Z,0.80
2022-08-07T15:54:18.261Z,0.60
2022-08-07T15:59:39.634Z,0.65
2022-08-07T16:04:47.503Z,0.50
2022-08-07T16:09:52.765Z,0.85
2022-08-07T16:15:54.474Z,0.70
2022-08-07T16:21:53.916Z,0.80
2022-08-07T16:26:30.951Z,0.45
2022-08-07T16:31:56.961Z,1.08
2022-08-07T16:38:06.364Z,1.27
2022-08-07T16:43:02.690Z,0.65
2022-08-07T16:48:27.687Z,1.35
2022-08-07T16:54:06.394Z,0.90
2022-08-07T16:59:20.412Z,1.08
2022-08-07T17:04:35.363Z,1.33
2022-08-07T17:10:07.154Z,0.77
2022-08-07T17:15:20.567Z,0.90
2022-08-07T17:20:35.700Z,1.13
2022-08-07T17:26:49.768Z,1.20
2022-08-07T17:32:30.118Z,2.95
2022-08-07T17:38:05.974Z,1.25
2022-08-07T17:43:17.825Z,1.35
2022-08-07T17:48:30.626Z,1.85
2022-08-07T17:54:00.574Z,3.70
2022-08-07T17:59:10.318Z,2.45
2022-08-07T18:04:34.510Z,1.73
2022-08-07T18:10:04.914Z,1.50
2022-08-07T18:15:13.045Z,1.67
2022-08-07T18:21:09.613Z,1.58
2022-08-07T18:25:50.259Z,1.45
2022-08-07T18:31:07.387Z,2.05
2022-08-07T18:36:16.088Z,1.65
2022-08-07T18:41:45.821Z,1.70
2022-08-07T18:47:00.216Z,1.20
2022-08-07T18:52:53.370Z,1.40
2022-08-07T18:58:05.704Z,2.13
2022-08-07T19:03:17.091Z,2.03
2022-08-07T19:08:26.744Z,3.03
2022-08-07T19:13:41.173Z,2.88
2022-08-07T19:18:52.819Z,2.90
2022-08-07T19:24:01.337Z,2.33
2022-08-07T19:31:04.383Z,1.25
2022-08-07T19:34:34.095Z,2.08
2022-08-07T19:39:56.037Z,2.97
2022-08-07T19:45:09.551Z,2.80
2022-08-07T19:50:41.299Z,2.70
2022-08-07T19:55:56.365Z,3.10
2022-08-07T20:00:58.741Z,1.95
2022-08-07T20:06:05.481Z,1.70
2022-08-07T20:11:12.257Z,1.88
2022-08-07T20:16:34.788Z,2.10
2022-08-07T20:21:47.436Z,2.10
2022-08-07T20:26:54.861Z,1.73
2022-08-07T20:32:00.060Z,1.55
2022-08-07T20:37:06.364Z,2.13
2022-08-07T20:42:12.586Z,2.03
2022-08-07T20:47:19.313Z,1.83
2022-08-07T20:52:30.204Z,1.67
2022-08-07T20:58:02.510Z,1.90
2022-08-07T21:03:07.758Z,2.00
2022-08-07T21:08:20.690Z,1.80
2022-08-07T21:13:57.967Z,1.50
2022-08-07T21:19:04.552Z,1.50
2022-08-07T21:24:18.500Z,3.17
2022-08-07T21:29:30.729Z,1.75
2022-08-07T21:34:58.703Z,1.95
2022-08-07T21:40:10.225Z,1.80
2022-08-07T21:46:03.266Z,1.75
2022-08-07T21:50:55.224Z,1.85
2022-08-07T21:56:16.784Z,1.83
2022-08-07T22:02:10.724Z,1.83
2022-08-07T22:07:22.860Z,1.75
2022-08-07T22:12:44.489Z,2.13
2022-08-07T22:17:53.884Z,1.65
2022-08-07T22:23:09.428Z,2.50
2022-08-07T22:28:32.137Z,1.83
2022-08-07T22:33:56.408Z,2.97
2022-08-07T22:39:13.870Z,1.75
2022-08-07T22:44:20.865Z,1.75
2022-08-07T22:49:37.897Z,1.73
2022-08-07T22:54:58.754Z,1.50
2022-08-07T23:00:28.532Z,1.77
2022-08-07T23:06:08.350Z,1.80
2022-08-07T23:11:24.549Z,1.50
2022-08-07T23:16:46.344Z,2.00
2022-08-07T23:22:10.996Z,1.80
2022-08-07T23:28:21.442Z,1.70
2022-08-07T23:34:35.850Z,1.38
2022-08-07T23:38:36.518Z,1.90
2022-08-07T23:44:15.681Z,1.60
2022-08-07T23:49:50.838Z,3.92
2022-08-07T23:55:02.082Z,3.17
